createdAt,value
2018-04-24T00:01:14.981Z,91.40
2018-04-24T00:03:41.797Z,91.40
2018-04-24T00:06:08.391Z,91.30
2018-04-24T00:08:34.613Z,91.70
2018-04-24T00:11:01.303Z,91.30
2018-04-24T00:13:28.264Z,90.40
2018-04-24T00:15:55.221Z,92.30
2018-04-24T00:18:21.532Z,92.50
2018-04-24T00:20:47.716Z,93.00
2018-04-24T00:23:14.013Z,91.80
2018-04-24T00:25:41.469Z,93.60
2018-04-24T00:28:09.072Z,93.20
2018-04-24T00:30:35.284Z,93.20
2018-04-24T00:33:01.973Z,91.90
2018-04-24T00:35:28.610Z,92.90
2018-04-24T00:37:54.829Z,94.90
2018-04-24T00:40:21.045Z,94.90
2018-04-24T00:42:47.639Z,93.50
2018-04-24T00:45:14.497Z,95.00
2018-04-24T00:47:41.472Z,93.50
2018-04-24T00:50:08.464Z,92.30
2018-04-24T00:52:34.673Z,92.30
2018-04-24T00:55:00.913Z,94.50
2018-04-24T00:57:27.144Z,93.30
2018-04-24T00:59:54.289Z,93.00
2018-04-24T01:02:20.965Z,91.70
2018-04-24T01:04:47.813Z,91.30
2018-04-24T01:07:14.045Z,91.20
2018-04-24T01:09:40.951Z,92.00
2018-04-24T01:12:07.909Z,93.40
2018-04-24T01:14:34.859Z,93.70
2018-04-24T01:17:01.835Z,94.30
2018-04-24T01:19:28.425Z,94.40
2018-04-24T01:21:54.648Z,93.60
2018-04-24T01:24:21.337Z,92.10
2018-04-24T01:26:47.936Z,94.40
2018-04-24T01:29:14.155Z,94.50
2018-04-24T01:31:40.388Z,93.80
2018-04-24T01:34:07.292Z,94.00
2018-04-24T01:36:35.156Z,94.90
2018-04-24T01:39:02.168Z,94.10
2018-04-24T01:41:29.680Z,94.20
2018-04-24T01:43:57.241Z,93.90
2018-04-24T01:46:24.867Z,94.60
2018-04-24T01:48:51.473Z,94.80
2018-04-24T01:51:17.707Z,94.50
2018-04-24T01:53:43.944Z,94.40
2018-04-24T01:56:10.192Z,94.50
2018-04-24T01:58:36.723Z,93.90
2018-04-24T02:01:03.396Z,94.30
2018-04-24T02:03:30.191Z,94.30
2018-04-24T02:05:56.392Z,94.60
2018-04-24T02:08:23.163Z,95.70
2018-04-24T02:10:50.120Z,95.60
2018-04-24T02:13:16.342Z,94.00
2018-04-24T02:15:43.297Z,94.10
2018-04-24T02:18:10.273Z,94.40
2018-04-24T02:20:37.350Z,94.60
2018-04-24T02:23:03.573Z,95.10
2018-04-24T02:25:29.805Z,94.30
2018-04-24T02:27:56.048Z,94.70
2018-04-24T02:30:23.128Z,96.00
2018-04-24T02:32:49.369Z,94.90
2018-04-24T02:35:15.592Z,96.40
2018-04-24T02:37:42.579Z,95.00
2018-04-24T02:40:09.415Z,95.70
2018-04-24T02:42:36.705Z,96.00
2018-04-24T02:45:02.953Z,96.20
2018-04-24T02:47:29.995Z,95.40
2018-04-24T02:49:56.209Z,95.40
2018-04-24T02:52:22.439Z,96.00
2018-04-24T02:54:49.413Z,95.80
2018-04-24T02:57:15.990Z,96.00
2018-04-24T02:59:42.685Z,96.90
2018-04-24T03:02:09.925Z,95.20
2018-04-24T03:04:37.313Z,95.10
2018-04-24T03:07:03.594Z,95.20
2018-04-24T03:09:30.290Z,96.20
2018-04-24T03:11:56.602Z,95.80
2018-04-24T03:14:23.158Z,96.10
2018-04-24T03:16:49.884Z,95.10
2018-04-24T03:19:16.838Z,94.50
2018-04-24T03:21:43.805Z,94.90
2018-04-24T03:24:10.155Z,94.90
2018-04-24T03:26:36.368Z,94.80
2018-04-24T03:29:03.933Z,94.70
2018-04-24T03:31:30.665Z,94.70
2018-04-24T03:33:57.625Z,94.00
2018-04-24T03:36:25.469Z,94.20
2018-04-24T03:38:52.341Z,94.30
2018-04-24T03:41:20.006Z,95.40
2018-04-24T03:43:46.975Z,95.90
2018-04-24T03:46:13.205Z,96.10
2018-04-24T03:48:40.073Z,95.70
2018-04-24T03:51:06.785Z,95.50
2018-04-24T03:53:33.766Z,94.80
2018-04-24T03:56:00.477Z,94.70
2018-04-24T03:58:27.857Z,94.50
2018-04-24T04:00:54.588Z,94.60
2018-04-24T04:03:22.005Z,94.60
2018-04-24T04:05:48.241Z,94.70
2018-04-24T04:08:14.462Z,93.00
2018-04-24T04:10:41.465Z,94.30
2018-04-24T04:13:08.408Z,94.20
2018-04-24T04:15:35.373Z,95.90
2018-04-24T04:18:14.718Z,95.70
2018-04-24T04:20:55.194Z,95.80
2018-04-24T04:23:33.761Z,95.70
2018-04-24T04:26:00.522Z,96.70
2018-04-24T04:28:27.566Z,96.70
2018-04-24T04:30:54.534Z,94.90
2018-04-24T04:33:20.801Z,95.80
2018-04-24T04:35:48.531Z,95.80
2018-04-24T04:38:15.473Z,97.50
2018-04-24T04:40:42.445Z,97.10
2018-04-24T04:43:09.000Z,97.30
2018-04-24T04:45:35.218Z,96.40
2018-04-24T04:48:02.030Z,94.20
2018-04-24T04:50:28.719Z,93.80
2018-04-24T04:52:55.312Z,93.50
2018-04-24T04:55:22.096Z,93.40
2018-04-24T04:57:49.558Z,93.80
2018-04-24T05:00:16.193Z,95.30
2018-04-24T05:02:43.694Z,93.90
2018-04-24T05:05:10.355Z,94.00
2018-04-24T05:07:36.599Z,94.20
2018-04-24T05:10:03.306Z,94.60
2018-04-24T05:12:29.606Z,95.50
2018-04-24T05:14:56.558Z,95.60
2018-04-24T05:17:23.550Z,95.20
2018-04-24T05:19:49.795Z,95.30
2018-04-24T05:22:16.172Z,94.80
2018-04-24T05:24:43.945Z,92.70
2018-04-24T05:27:11.543Z,92.40
2018-04-24T05:29:37.834Z,92.50
2018-04-24T05:32:05.438Z,94.10
2018-04-24T05:34:32.292Z,93.60
2018-04-24T05:36:59.236Z,92.80
2018-04-24T05:39:25.556Z,93.20
2018-04-24T05:41:54.036Z,92.70
2018-04-24T05:44:21.665Z,93.50
2018-04-24T05:46:48.662Z,93.40
2018-04-24T05:49:16.388Z,93.50
2018-04-24T05:51:43.220Z,93.60
2018-04-24T05:54:09.527Z,92.50
2018-04-24T05:56:36.966Z,92.70
2018-04-24T05:59:04.018Z,93.40
2018-04-24T06:01:30.926Z,93.50
2018-04-24T06:03:57.245Z,93.30
2018-04-24T06:06:23.869Z,92.40
2018-04-24T06:08:50.608Z,93.00
2018-04-24T06:11:16.912Z,92.80
2018-04-24T06:13:44.509Z,93.80
2018-04-24T06:16:10.838Z,92.60
2018-04-24T06:18:37.881Z,92.00
2018-04-24T06:21:05.645Z,92.20
2018-04-24T06:23:32.705Z,92.00
2018-04-24T06:25:59.765Z,91.40
2018-04-24T06:28:26.927Z,91.40
2018-04-24T06:30:53.757Z,91.50
2018-04-24T06:33:21.336Z,91.80
2018-04-24T06:35:48.485Z,91.90
2018-04-24T06:38:15.533Z,91.60
2018-04-24T06:40:42.592Z,92.00
2018-04-24T06:43:10.109Z,92.40
2018-04-24T06:45:37.109Z,92.40
2018-04-24T06:48:04.248Z,91.80
2018-04-24T06:50:31.281Z,91.90
2018-04-24T06:52:57.590Z,91.80
2018-04-24T06:55:24.584Z,91.80
2018-04-24T06:57:51.630Z,91.10
2018-04-24T07:00:19.309Z,91.20
2018-04-24T07:02:46.357Z,91.20
2018-04-24T07:05:14.030Z,91.90
2018-04-24T07:07:41.072Z,91.60
2018-04-24T07:10:07.373Z,91.70
2018-04-24T07:12:33.690Z,91.50
2018-04-24T07:15:00.517Z,91.70
2018-04-24T07:17:26.882Z,92.00
2018-04-24T07:19:53.755Z,91.30
2018-04-24T07:22:20.059Z,90.90
2018-04-24T07:24:46.272Z,90.90
2018-04-24T07:27:13.143Z,91.20
2018-04-24T07:29:39.693Z,90.90
2018-04-24T07:32:06.525Z,88.50
2018-04-24T07:34:33.081Z,89.20
2018-04-24T07:36:59.754Z,87.70
2018-04-24T07:39:25.976Z,86.60
2018-04-24T07:41:52.620Z,85.90
2018-04-24T07:44:19.153Z,84.70
2018-04-24T07:46:45.810Z,84.10
2018-04-24T07:49:12.429Z,84.50
2018-04-24T07:51:38.654Z,83.50
2018-04-24T07:54:05.320Z,81.90
2018-04-24T07:56:31.528Z,82.30
2018-04-24T07:58:57.733Z,82.10
2018-04-24T08:01:25.165Z,82.70
2018-04-24T08:03:51.381Z,82.50
2018-04-24T08:06:17.636Z,82.10
2018-04-24T08:08:45.271Z,80.70
2018-04-24T08:11:11.497Z,81.00
2018-04-24T08:13:37.726Z,82.50
2018-04-24T08:16:05.682Z,80.70
2018-04-24T08:18:32.621Z,79.10
2018-04-24T08:20:59.594Z,79.60
2018-04-24T08:23:25.888Z,79.60
2018-04-24T08:25:53.221Z,78.80
2018-04-24T08:28:19.981Z,78.30
2018-04-24T08:30:46.242Z,78.90
2018-04-24T08:33:13.810Z,78.10
2018-04-24T08:35:41.213Z,78.90
2018-04-24T08:38:08.002Z,78.90
2018-04-24T08:40:34.989Z,75.90
2018-04-24T08:43:01.773Z,75.80
2018-04-24T08:45:28.397Z,74.30
2018-04-24T08:47:55.232Z,75.80
2018-04-24T08:50:21.873Z,75.10
2018-04-24T08:52:48.083Z,73.20
2018-04-24T08:55:15.051Z,73.30
2018-04-24T08:57:41.313Z,72.90
2018-04-24T09:00:08.837Z,69.10
2018-04-24T09:02:35.805Z,72.50
2018-04-24T09:05:02.072Z,72.10
2018-04-24T09:07:28.293Z,72.80
2018-04-24T09:09:55.263Z,70.60
2018-04-24T09:12:21.509Z,72.50
2018-04-24T09:14:49.237Z,71.30
2018-04-24T09:17:30.381Z,71.50
2018-04-24T09:19:57.709Z,69.00
2018-04-24T09:22:24.584Z,69.00
2018-04-24T09:24:51.937Z,72.10
2018-04-24T09:27:18.972Z,71.80
2018-04-24T09:29:53.467Z,71.80
2018-04-24T09:32:20.257Z,71.20
2018-04-24T09:34:47.231Z,72.20
2018-04-24T09:37:13.790Z,72.10
2018-04-24T09:39:40.000Z,71.00
2018-04-24T09:42:06.935Z,71.40
2018-04-24T09:44:33.937Z,71.20
2018-04-24T09:47:00.950Z,71.20
2018-04-24T09:49:27.671Z,71.20
2018-04-24T09:51:53.750Z,70.40
2018-04-24T09:54:19.960Z,68.80
2018-04-24T09:56:46.231Z,69.20
2018-04-24T09:59:12.424Z,69.40
2018-04-24T10:01:39.723Z,70.00
2018-04-24T10:04:05.936Z,69.90
2018-04-24T10:06:32.205Z,68.40
2018-04-24T10:08:58.901Z,67.90
2018-04-24T10:11:25.837Z,68.40
2018-04-24T10:13:53.245Z,66.40
2018-04-24T10:16:19.478Z,66.20
2018-04-24T10:18:46.529Z,66.60
2018-04-24T10:21:13.430Z,67.30
2018-04-24T10:23:40.390Z,67.60
2018-04-24T10:26:07.351Z,68.40
2018-04-24T10:28:33.598Z,67.70
2018-04-24T10:30:59.825Z,66.00
2018-04-24T10:33:26.141Z,66.40
2018-04-24T10:35:53.812Z,65.20
2018-04-24T10:38:20.077Z,65.80
2018-04-24T10:40:47.816Z,64.90
2018-04-24T10:43:15.325Z,64.40
2018-04-24T10:45:41.976Z,64.40
2018-04-24T10:48:08.600Z,64.90
2018-04-24T10:50:34.819Z,65.60
2018-04-24T10:53:01.431Z,63.90
2018-04-24T10:55:28.431Z,61.70
2018-04-24T10:57:55.076Z,61.60
2018-04-24T11:00:22.007Z,62.60
2018-04-24T11:02:48.232Z,60.40
2018-04-24T11:05:14.454Z,60.30
2018-04-24T11:07:41.440Z,58.60
2018-04-24T11:10:08.180Z,58.40
2018-04-24T11:12:34.402Z,58.40
2018-04-24T11:15:00.989Z,59.40
2018-04-24T11:17:27.972Z,58.00
2018-04-24T11:19:55.453Z,56.40
2018-04-24T11:22:22.159Z,56.20
2018-04-24T11:24:49.110Z,57.10
2018-04-24T11:27:16.695Z,56.60
2018-04-24T11:29:43.678Z,56.10
2018-04-24T11:32:10.431Z,56.20
2018-04-24T11:34:36.749Z,55.70
2018-04-24T11:37:03.449Z,54.60
2018-04-24T11:39:29.653Z,55.90
2018-04-24T11:41:56.477Z,56.70
2018-04-24T11:44:23.177Z,53.00
2018-04-24T11:46:51.080Z,55.70
2018-04-24T11:49:18.154Z,53.60
2018-04-24T11:51:44.973Z,53.50
2018-04-24T11:54:12.438Z,52.20
2018-04-24T11:56:39.434Z,53.40
2018-04-24T11:59:05.654Z,53.00
2018-04-24T12:01:32.167Z,53.10
2018-04-24T12:03:59.152Z,52.30
2018-04-24T12:06:25.385Z,52.30
2018-04-24T12:08:52.292Z,47.90
2018-04-24T12:11:19.246Z,52.50
2018-04-24T12:13:46.818Z,53.50
2018-04-24T12:16:13.432Z,53.40
2018-04-24T12:18:40.060Z,52.40
2018-04-24T12:21:06.848Z,51.70
2018-04-24T12:23:33.820Z,51.60
2018-04-24T12:26:00.386Z,51.70
2018-04-24T12:28:26.699Z,50.20
2018-04-24T12:30:53.531Z,49.80
2018-04-24T12:33:20.256Z,49.90
2018-04-24T12:35:47.683Z,51.00
2018-04-24T12:38:14.320Z,50.90
2018-04-24T12:40:40.967Z,51.00
2018-04-24T12:43:07.472Z,51.00
2018-04-24T12:45:33.724Z,51.10
2018-04-24T12:48:00.581Z,50.80
2018-04-24T12:50:26.804Z,51.90
2018-04-24T12:52:53.025Z,53.00
2018-04-24T12:55:19.896Z,52.50
2018-04-24T12:57:46.198Z,51.80
2018-04-24T13:00:12.856Z,53.30
2018-04-24T13:02:39.877Z,52.50
2018-04-24T13:05:07.346Z,52.60
2018-04-24T13:07:34.293Z,51.40
2018-04-24T13:10:01.257Z,51.10
2018-04-24T13:12:28.337Z,51.10
2018-04-24T13:14:55.046Z,51.00
2018-04-24T13:17:22.025Z,51.30
2018-04-24T13:19:48.241Z,51.20
2018-04-24T13:22:14.825Z,52.00
2018-04-24T13:24:41.065Z,50.30
2018-04-24T13:27:07.278Z,49.00
2018-04-24T13:29:33.665Z,48.70
2018-04-24T13:32:00.293Z,48.50
2018-04-24T13:34:27.297Z,49.20
2018-04-24T13:36:54.240Z,49.10
2018-04-24T13:39:20.798Z,50.40
2018-04-24T13:41:47.470Z,49.60
2018-04-24T13:44:13.685Z,48.20
2018-04-24T13:46:40.350Z,48.30
2018-04-24T13:49:06.955Z,48.60
2018-04-24T13:51:33.185Z,48.00
2018-04-24T13:53:59.911Z,47.10
2018-04-24T13:56:26.873Z,46.90
2018-04-24T13:58:53.163Z,46.90
2018-04-24T14:01:19.954Z,46.90
2018-04-24T14:03:46.788Z,47.50
2018-04-24T14:06:13.744Z,45.40
2018-04-24T14:08:39.996Z,45.10
2018-04-24T14:11:06.927Z,43.30
2018-04-24T14:13:34.371Z,41.90
2018-04-24T14:16:01.340Z,39.60
2018-04-24T14:18:28.313Z,42.20
2018-04-24T14:20:55.086Z,42.00
2018-04-24T14:23:21.875Z,41.30
2018-04-24T14:25:48.849Z,40.30
2018-04-24T14:28:15.084Z,40.40
2018-04-24T14:30:41.660Z,39.50
2018-04-24T14:33:07.895Z,39.90
2018-04-24T14:35:34.945Z,39.60
2018-04-24T14:38:01.800Z,40.30
2018-04-24T14:40:28.787Z,37.60
2018-04-24T14:42:56.068Z,37.20
2018-04-24T14:45:22.331Z,37.10
2018-04-24T14:47:49.333Z,37.20
2018-04-24T14:50:16.622Z,36.90
2018-04-24T14:52:42.860Z,36.90
2018-04-24T14:55:09.090Z,35.20
2018-04-24T14:57:35.320Z,36.80
2018-04-24T15:00:02.198Z,36.60
2018-04-24T15:02:28.414Z,34.30
2018-04-24T15:04:55.129Z,34.60
2018-04-24T15:07:22.089Z,35.30
2018-04-24T15:09:48.925Z,35.00
2018-04-24T15:12:15.894Z,34.80
2018-04-24T15:14:42.830Z,34.80
2018-04-24T15:17:09.065Z,35.40
2018-04-24T15:19:35.862Z,35.10
2018-04-24T15:22:02.769Z,35.20
2018-04-24T15:24:29.424Z,34.60
2018-04-24T15:26:56.200Z,34.90
2018-04-24T15:29:22.421Z,33.80
2018-04-24T15:31:48.656Z,34.60
2018-04-24T15:34:15.333Z,34.20
2018-04-24T15:36:42.310Z,32.80
2018-04-24T15:39:09.321Z,35.50
2018-04-24T15:41:35.941Z,35.30
2018-04-24T15:44:02.745Z,34.80
2018-04-24T15:46:30.130Z,35.00
2018-04-24T15:48:56.793Z,35.00
2018-04-24T15:51:22.998Z,34.90
2018-04-24T15:53:49.205Z,34.10
2018-04-24T15:56:16.206Z,36.40
2018-04-24T15:58:43.741Z,36.00
2018-04-24T16:01:10.355Z,35.70
2018-04-24T16:03:36.552Z,36.30
2018-04-24T16:06:03.276Z,36.70
2018-04-24T16:08:30.109Z,37.40
2018-04-24T16:10:56.331Z,37.10
2018-04-24T16:13:23.308Z,37.60
2018-04-24T16:15:49.568Z,37.50
2018-04-24T16:18:16.368Z,37.80
2018-04-24T16:20:43.359Z,38.00
2018-04-24T16:23:10.088Z,37.90
2018-04-24T16:25:36.872Z,38.30
2018-04-24T16:28:03.109Z,39.20
2018-04-24T16:30:30.248Z,40.40
2018-04-24T16:32:56.868Z,40.70
2018-04-24T16:35:23.117Z,41.20
2018-04-24T16:37:49.757Z,43.20
2018-04-24T16:40:16.005Z,43.40
2018-04-24T16:42:42.540Z,45.50
2018-04-24T16:45:09.341Z,48.10
2018-04-24T16:47:36.898Z,49.40
2018-04-24T16:50:04.544Z,50.40
2018-04-24T16:52:31.517Z,50.00
2018-04-24T16:54:59.085Z,50.30
2018-04-24T16:57:26.062Z,51.70
2018-04-24T16:59:53.149Z,52.00
2018-04-24T17:02:19.370Z,52.80
2018-04-24T17:04:46.027Z,53.80
2018-04-24T17:07:12.759Z,54.30
2018-04-24T17:09:39.576Z,54.30
2018-04-24T17:12:06.152Z,53.80
2018-04-24T17:14:32.378Z,53.30
2018-04-24T17:16:59.085Z,53.50
2018-04-24T17:19:26.482Z,54.00
2018-04-24T17:21:53.605Z,54.40
2018-04-24T17:24:19.816Z,53.90
2018-04-24T17:26:46.021Z,54.10
2018-04-24T17:29:12.685Z,55.00
2018-04-24T17:31:38.905Z,53.30
2018-04-24T17:34:05.493Z,55.50
2018-04-24T17:36:32.537Z,55.70
2018-04-24T17:38:59.777Z,55.00
2018-04-24T17:41:27.658Z,56.70
2018-04-24T17:43:54.645Z,57.90
2018-04-24T17:46:21.218Z,58.20
2018-04-24T17:48:47.901Z,60.20
2018-04-24T17:51:15.480Z,59.60
2018-04-24T17:53:42.512Z,59.80
2018-04-24T17:56:10.311Z,59.80
2018-04-24T17:58:36.517Z,59.90
2018-04-24T18:01:04.190Z,60.30
2018-04-24T18:03:31.657Z,59.70
2018-04-24T18:05:58.627Z,60.10
2018-04-24T18:08:26.685Z,60.30
2018-04-24T18:10:53.649Z,62.40
2018-04-24T18:13:20.328Z,62.60
2018-04-24T18:15:46.550Z,62.90
2018-04-24T18:18:12.790Z,64.90
2018-04-24T18:20:39.594Z,63.90
2018-04-24T18:23:06.549Z,64.80
2018-04-24T18:25:33.449Z,65.00
2018-04-24T18:28:00.358Z,63.90
2018-04-24T18:30:26.580Z,63.60
2018-04-24T18:32:53.316Z,68.40
2018-04-24T18:35:20.276Z,69.60
2018-04-24T18:37:46.960Z,70.10
2018-04-24T18:40:13.268Z,70.80
2018-04-24T18:42:40.660Z,68.90
2018-04-24T18:45:07.356Z,69.20
2018-04-24T18:47:34.650Z,68.70
2018-04-24T18:50:01.281Z,68.90
2018-04-24T18:52:27.521Z,68.30
2018-04-24T18:54:54.224Z,69.90
2018-04-24T18:57:21.451Z,69.50
2018-04-24T18:59:48.289Z,68.60
2018-04-24T19:02:15.073Z,69.50
2018-04-24T19:04:42.046Z,70.40
2018-04-24T19:07:08.700Z,70.50
2018-04-24T19:09:36.145Z,70.80
2018-04-24T19:12:02.770Z,70.40
2018-04-24T19:14:30.259Z,73.30
2018-04-24T19:16:57.314Z,73.60
2018-04-24T19:19:25.587Z,72.80
2018-04-24T19:21:51.990Z,73.30
2018-04-24T19:24:25.542Z,77.10
2018-04-24T19:26:52.044Z,73.40
2018-04-24T19:29:19.198Z,73.60
2018-04-24T19:31:52.356Z,74.40
2018-04-24T19:34:19.185Z,74.60
2018-04-24T19:36:46.069Z,77.10
2018-04-24T19:39:19.217Z,74.50
2018-04-24T19:41:50.674Z,74.60
2018-04-24T19:44:17.690Z,74.60
2018-04-24T19:46:44.831Z,76.70
2018-04-24T19:49:17.825Z,76.90
2018-04-24T19:51:45.618Z,74.80
2018-04-24T19:54:13.100Z,74.90
2018-04-24T19:56:39.875Z,74.40
2018-04-24T19:59:07.201Z,73.80
2018-04-24T20:01:34.459Z,77.40
2018-04-24T20:04:00.857Z,76.00
2018-04-24T20:06:27.901Z,80.30
2018-04-24T20:08:55.009Z,80.40
2018-04-24T20:11:21.442Z,80.10
2018-04-24T20:13:48.292Z,76.90
2018-04-24T20:16:15.855Z,82.40
2018-04-24T20:18:42.912Z,78.30
2018-04-24T20:21:09.842Z,79.40
2018-04-24T20:23:36.180Z,79.70
2018-04-24T20:26:02.623Z,78.20
2018-04-24T20:28:31.668Z,76.80
2018-04-24T20:30:58.593Z,75.80
2018-04-24T20:33:24.921Z,76.40
2018-04-24T20:35:51.166Z,76.10
2018-04-24T20:38:18.015Z,78.70
2018-04-24T20:40:44.918Z,78.30
2018-04-24T20:43:12.366Z,80.30
2018-04-24T20:45:38.988Z,80.60
2018-04-24T20:48:05.772Z,80.50
2018-04-24T20:50:33.146Z,79.30
2018-04-24T20:52:59.376Z,79.30
2018-04-24T20:55:26.209Z,81.60
2018-04-24T20:57:53.669Z,78.40
2018-04-24T21:00:21.271Z,80.50
2018-04-24T21:02:47.621Z,80.70
2018-04-24T21:05:13.955Z,79.10
2018-04-24T21:07:41.199Z,79.00
2018-04-24T21:10:09.017Z,79.90
2018-04-24T21:12:36.032Z,79.40
2018-04-24T21:15:02.370Z,79.80
2018-04-24T21:17:29.307Z,84.00
2018-04-24T21:19:56.102Z,84.10
2018-04-24T21:22:22.412Z,83.30
2018-04-24T21:24:49.237Z,83.90
2018-04-24T21:27:15.561Z,82.90
2018-04-24T21:29:41.846Z,83.10
2018-04-24T21:32:09.067Z,83.30
2018-04-24T21:34:35.934Z,83.40
2018-04-24T21:37:03.073Z,85.10
2018-04-24T21:39:30.338Z,81.20
2018-04-24T21:41:57.388Z,81.90
2018-04-24T21:44:24.131Z,83.50
2018-04-24T21:46:51.191Z,83.30
2018-04-24T21:49:17.513Z,84.60
2018-04-24T21:51:45.107Z,84.00
2018-04-24T21:54:11.852Z,84.90
2018-04-24T21:56:38.265Z,83.20
2018-04-24T21:59:05.660Z,84.80
2018-04-24T22:01:32.878Z,86.00
2018-04-24T22:03:59.742Z,85.50
2018-04-24T22:06:26.165Z,83.70
2018-04-24T22:08:54.471Z,84.20
2018-04-24T22:11:21.291Z,84.00
2018-04-24T22:13:48.350Z,83.50
2018-04-24T22:16:15.439Z,84.20
2018-04-24T22:18:41.752Z,82.80
2018-04-24T22:21:08.121Z,82.90
2018-04-24T22:23:34.567Z,85.10
2018-04-24T22:26:01.565Z,81.80
2018-04-24T22:28:27.867Z,81.80
2018-04-24T22:30:56.464Z,84.00
2018-04-24T22:33:23.427Z,84.10
2018-04-24T22:35:49.645Z,84.00
2018-04-24T22:38:17.105Z,86.50
2018-04-24T22:40:44.564Z,84.10
2018-04-24T22:43:11.980Z,85.10
2018-04-24T22:45:38.205Z,85.30
2018-04-24T22:48:05.025Z,82.90
2018-04-24T22:50:31.809Z,84.10
2018-04-24T22:52:58.017Z,86.00
2018-04-24T22:55:24.628Z,84.50
2018-04-24T22:57:51.592Z,84.20
2018-04-24T23:00:19.097Z,84.00
2018-04-24T23:02:45.325Z,84.10
2018-04-24T23:05:11.545Z,85.50
2018-04-24T23:07:38.388Z,86.40
2018-04-24T23:10:06.328Z,84.60
2018-04-24T23:12:45.417Z,84.10
2018-04-24T23:15:24.597Z,84.10
2018-04-24T23:18:03.905Z,85.50
2018-04-24T23:20:30.051Z,85.60
2018-04-24T23:22:56.241Z,85.60
2018-04-24T23:25:22.533Z,85.80
2018-04-24T23:27:50.189Z,86.00
2018-04-24T23:30:17.167Z,86.10
2018-04-24T23:32:44.058Z,86.10
2018-04-24T23:35:10.306Z,86.70
2018-04-24T23:37:37.189Z,87.20
2018-04-24T23:40:03.883Z,85.80
2018-04-24T23:42:30.658Z,85.90
2018-04-24T23:44:57.658Z,87.20
2018-04-24T23:47:24.337Z,87.20
2018-04-24T23:49:51.205Z,86.40
2018-04-24T23:52:18.193Z,87.60
2018-04-24T23:54:44.981Z,87.90
2018-04-24T23:57:11.284Z,88.80
2018-04-24T23:59:38.038Z,86.80
